Página principal
METAR-TAF:

METAR-TAF

Aeroportos :

Alice Springs, Austrália

latitude: 23-48S, longitude: 133-53E, altura: 545 m

Observação actual do tempo

O boletim foi feito há 44 minutos, às 05:00 UTC
Vento 9 kt de es-nordeste
Temperatura 27°C
Humidade 24%
Pressão 1016 hPa
Visibilidade 10 km ou mais

METAR: YBAS 260500Z AUTO 06009KT 9999 // NCD 27/05 Q1016 RF00.0/000.0

Hora: 15:14 (05:44 UTC)

Previsão

O boletim foi feito há 29 minutos, às 05:15 UTC
Previsão válida de 26 às 06 UTC a 27 às 06 UTC
Vento 8 kt de nor-nordeste
Visibilidade 10 km ou mais
sem nuvens abaixo de 1500 metros e sem cumulonimbus
A partir de 27 às 0200 UTC
Vento 8 kt de nor-noroeste
Visibilidade 10 km ou mais
sem nuvens abaixo de 1500 metros e sem cumulonimbus

TAF: YBAS 260515Z 2606/2706 02008KT CAVOK FM270200 33008KT CAVOK

Observações e previsões do tempo de mais de 4000 aeroportos (mensagens METAR e TAF).

As estações disponíveis são os pontos amarelos e vermelhos sobre o mapa.

Mova o rato sobre o mapa para ver o nome da estação.

Depois clique no ponto para visualizar as observações e previsões meteorológicas.

Para alterar o mapa : clique nos botões verdes com uma cruz preta para aumentar o zoom; no botão verde com uma pitada de zoom; ou nas setas verdes para mapas adjacentes.


METAR-TAF: